RYG weather

Moss Airport, Rygge
Oslo, Østfold, Norway

Public forecast

Using degrees Celsius for public forecast. Weather courtesy of forecast.io.

METAR (pilot weather report)

Retrieved 2019/03/25 20:20 UTC (0 seconds ago):

ENRY 252020Z AUTO 30012KT 9999NDV NCD 05/M05 Q1016

TAF (pilot weather forecast)

Retrieved 2019/03/25 18:57 UTC (1 hour ago):

TAF ENRY 251700Z 2518/2618 21007KT CAVOK BECMG 2519/2521 33010KT BECMG 2613/2615 22008KT